Time;durP1;ratioP1;P1;durP2;ratioP2;P2;SDS_P1;SDS_P2;PMS_P1;PMS_P2;Temp;Humidity;BMP_temperature;BMP_pressure;BME280_temperature;BME280_humidity;BME280_pressure;Samples;Min_cycle;Max_cycle;Signal;HPM_P1;HPM_P2
2022/05/29 00:02:09;;;;;;;7.70;1.65;;;12.40;95.80;;;;;;5013018;28;20034;-87
2022/05/29 00:04:37;;;;;;;9.40;1.88;;;12.50;95.70;;;;;;5013296;28;20360;-85
2022/05/29 00:07:04;;;;;;;9.50;2.35;;;12.60;95.40;;;;;;5012704;28;20380;-83
2022/05/29 00:09:38;;;;;;;7.15;1.65;;;12.70;95.30;;;;;;5013336;28;20018;-86
2022/05/29 00:12:07;;;;;;;9.65;1.75;;;12.50;95.50;;;;;;5012998;28;20050;-83
2022/05/29 00:14:34;;;;;;;6.43;1.88;;;12.60;95.60;;;;;;5011861;28;20034;-84
2022/05/29 00:16:59;;;;;;;8.75;1.63;;;12.70;95.50;;;;;;5012992;28;20498;-85
2022/05/29 00:19:25;;;;;;;8.20;1.90;;;12.70;95.50;;;;;;5012695;28;20057;-85
2022/05/29 00:21:51;;;;;;;11.60;1.70;;;12.60;95.60;;;;;;5012721;28;20060;-82
2022/05/29 00:24:17;;;;;;;12.52;2.20;;;12.50;95.80;;;;;;5012020;28;20021;-86
2022/05/29 00:26:43;;;;;;;11.52;1.95;;;12.60;95.70;;;;;;5011503;28;20042;-81
2022/05/29 00:29:09;;;;;;;8.55;1.42;;;12.60;95.70;;;;;;5012553;28;20143;-84
2022/05/29 00:31:35;;;;;;;10.23;1.70;;;12.60;95.70;;;;;;5012717;28;20114;-83
2022/05/29 00:34:02;;;;;;;8.23;2.25;;;12.60;95.70;;;;;;5011493;28;20419;-84
2022/05/29 00:36:34;;;;;;;13.52;2.45;;;12.70;95.60;;;;;;5011971;28;20448;-84
2022/05/29 00:39:00;;;;;;;11.00;1.70;;;12.70;95.50;;;;;;5012678;28;20038;-84
2022/05/29 00:41:29;;;;;;;7.95;1.65;;;12.40;96.00;;;;;;5011402;28;20053;-86
2022/05/29 00:44:27;;;;;;;11.35;1.75;;;12.50;96.00;;;;;;5011696;28;20018;-85
2022/05/29 00:47:14;;;;;;;5.85;1.55;;;12.50;96.20;;;;;;5012543;28;20438;-82
2022/05/29 00:49:42;;;;;;;8.23;1.77;;;12.20;96.80;;;;;;5011185;28;20034;-86
2022/05/29 00:52:18;;;;;;;5.35;1.67;;;12.30;96.80;;;;;;5011335;28;20030;-84
2022/05/29 00:54:55;;;;;;;9.23;1.95;;;12.20;97.00;;;;;;5012774;28;20048;-81
2022/05/29 00:57:30;;;;;;;11.07;2.47;;;12.10;97.20;;;;;;5012846;28;20384;-83
2022/05/29 01:00:04;;;;;;;8.88;1.73;;;12.10;97.30;;;;;;5012464;28;20042;-85
2022/05/29 01:02:30;;;;;;;12.63;2.20;;;12.10;97.50;;;;;;5012520;28;20121;-85
2022/05/29 01:04:57;;;;;;;10.88;2.42;;;12.10;97.40;;;;;;5011222;28;20049;-86
2022/05/29 01:07:26;;;;;;;8.30;1.88;;;12.30;97.40;;;;;;5012240;28;20030;-85
2022/05/29 01:09:53;;;;;;;8.57;1.67;;;12.20;97.60;;;;;;5011918;28;20074;-86
2022/05/29 01:12:41;;;;;;;7.90;2.05;;;12.00;98.10;;;;;;5012346;28;20112;-82
2022/05/29 01:15:44;;;;;;;9.95;2.17;;;12.00;98.00;;;;;;5011727;28;20037;-85
2022/05/29 01:18:37;;;;;;;10.75;1.80;;;12.00;98.00;;;;;;5012157;28;20140;-87
2022/05/29 01:21:28;;;;;;;5.28;1.33;;;12.10;97.80;;;;;;5025677;28;20034;-85
2022/05/29 01:24:27;;;;;;;7.47;1.85;;;12.20;97.70;;;;;;5011514;28;20367;-83
2022/05/29 01:27:05;;;;;;;10.93;1.92;;;12.10;97.90;;;;;;5029050;28;20045;-84
2022/05/29 01:29:47;;;;;;;7.10;1.70;;;12.10;97.90;;;;;;5015917;28;20113;-84
2022/05/29 01:32:17;;;;;;;16.40;2.47;;;12.20;98.00;;;;;;5011611;28;20475;-84
2022/05/29 01:34:52;;;;;;;9.52;2.28;;;12.00;97.90;;;;;;5011376;28;20104;-86
2022/05/29 01:37:31;;;;;;;11.73;2.05;;;11.90;98.10;;;;;;5027004;28;20041;-85
2022/05/29 01:40:06;;;;;;;11.25;2.08;;;12.00;98.00;;;;;;5010602;28;20048;-85
2022/05/29 01:42:54;;;;;;;8.70;2.78;;;12.00;98.00;;;;;;5011178;28;20033;-88
2022/05/29 01:45:33;;;;;;;9.23;2.42;;;11.80;98.30;;;;;;5011818;28;20337;-84
2022/05/29 01:48:14;;;;;;;7.63;2.00;;;11.90;98.30;;;;;;5011529;28;20038;-86
2022/05/29 01:50:53;;;;;;;8.30;1.92;;;12.00;98.50;;;;;;5011549;28;20516;-86
2022/05/29 01:53:27;;;;;;;12.32;3.45;;;11.90;98.90;;;;;;5011601;28;20030;-83
2022/05/29 01:55:57;;;;;;;6.97;2.33;;;12.00;99.10;;;;;;5010540;28;20030;-85
2022/05/29 01:58:31;;;;;;;11.10;2.40;;;11.80;99.30;;;;;;5010307;28;20238;-86
2022/05/29 02:01:06;;;;;;;10.15;2.30;;;11.90;99.40;;;;;;5010726;28;20033;-86
2022/05/29 02:03:42;;;;;;;9.88;2.33;;;11.90;99.40;;;;;;5011589;28;20041;-86
2022/05/29 02:06:14;;;;;;;6.32;2.33;;;11.80;99.30;;;;;;5011950;28;20073;-87
2022/05/29 02:08:54;;;;;;;8.05;2.40;;;11.80;99.50;;;;;;5011869;28;20034;-87
2022/05/29 02:11:23;;;;;;;4.60;1.95;;;11.80;99.60;;;;;;5012065;28;20319;-88
2022/05/29 02:13:59;;;;;;;10.80;2.50;;;11.90;99.30;;;;;;5004301;28;20151;-89
2022/05/29 02:16:39;;;;;;;8.07;2.33;;;12.00;99.20;;;;;;5017556;28;20037;-86
2022/05/29 02:19:28;;;;;;;9.30;2.00;;;12.00;99.20;;;;;;5011375;28;20048;-84
2022/05/29 02:22:09;;;;;;;8.60;2.30;;;11.90;99.40;;;;;;5010937;28;20022;-83
2022/05/29 02:24:57;;;;;;;11.48;2.00;;;12.00;99.20;;;;;;5010722;28;20068;-87
2022/05/29 02:27:38;;;;;;;;;;;12.10;98.90;;;;;;5011719;28;20096;-86
2022/05/29 02:30:05;;;;;;;12.98;2.90;;;12.20;98.90;;;;;;5011469;28;19921;-83
2022/05/29 02:33:03;;;;;;;7.53;2.58;;;12.00;99.00;;;;;;5011180;28;20034;-84
2022/05/29 02:35:34;;;;;;;;;;;11.80;99.40;;;;;;5012195;28;20030;-85
2022/05/29 02:38:07;;;;;;;14.52;2.85;;;11.70;99.40;;;;;;5011627;28;19913;-85
2022/05/29 02:40:48;;;;;;;10.23;2.33;;;11.70;99.70;;;;;;5011234;28;20038;-86
2022/05/29 02:43:35;;;;;;;8.43;2.33;;;11.90;99.40;;;;;;5011469;28;20408;-86
2022/05/29 02:46:31;;;;;;;13.75;2.78;;;12.00;99.30;;;;;;5011443;28;20052;-87
2022/05/29 02:48:56;;;;;;;12.55;2.70;;;12.00;99.20;;;;;;5013405;28;20460;-87
2022/05/29 02:51:41;;;;;;;7.57;2.60;;;11.90;99.10;;;;;;5013874;28;20045;-87
2022/05/29 02:54:11;;;;;;;9.63;2.25;;;12.00;99.30;;;;;;5014315;28;20026;-87
2022/05/29 02:56:37;;;;;;;10.52;2.33;;;12.00;99.30;;;;;;5014693;28;20034;-86
2022/05/29 02:59:03;;;;;;;15.05;2.47;;;12.10;99.20;;;;;;5013377;28;20505;-86
2022/05/29 03:02:11;;;;;;;10.65;2.30;;;11.90;99.50;;;;;;5014370;28;20030;-87
2022/05/29 03:04:59;;;;;;;15.25;2.65;;;12.00;99.50;;;;;;5014393;28;20117;-84
2022/05/29 03:07:43;;;;;;;12.75;2.50;;;11.80;99.80;;;;;;5014475;28;20017;-86
2022/05/29 03:10:31;;;;;;;14.15;2.90;;;11.80;99.80;;;;;;5014563;28;20053;-85
2022/05/29 03:13:21;;;;;;;7.95;2.38;;;11.70;99.90;;;;;;5014443;28;20034;-86
2022/05/29 03:16:09;;;;;;;10.90;2.55;;;11.90;99.70;;;;;;5014461;28;20443;-85
2022/05/29 03:18:40;;;;;;;12.98;3.10;;;12.00;99.60;;;;;;5014358;28;20057;-86
2022/05/29 03:21:55;;;;;;;11.63;2.72;;;11.90;99.60;;;;;;5014055;28;20543;-87
2022/05/29 03:24:41;;;;;;;17.05;3.15;;;11.90;99.60;;;;;;5018053;28;20045;-86
2022/05/29 03:27:26;;;;;;;14.32;2.75;;;12.00;99.60;;;;;;5013897;28;20034;-84
2022/05/29 03:30:16;;;;;;;6.75;2.25;;;12.00;99.40;;;;;;5013814;28;20041;-85
2022/05/29 03:32:42;;;;;;;16.73;3.88;;;11.80;99.70;;;;;;5016031;28;20394;-85
2022/05/29 03:35:22;;;;;;;19.15;3.15;;;11.70;99.80;;;;;;5014052;28;20384;-84
2022/05/29 03:37:48;;;;;;;16.23;2.75;;;11.80;99.80;;;;;;5013952;28;20492;-85
2022/05/29 03:40:14;;;;;;;15.02;2.53;;;11.90;99.60;;;;;;5013320;28;20038;-84
2022/05/29 03:42:40;;;;;;;15.23;3.30;;;11.90;99.50;;;;;;5014058;28;20025;-86
2022/05/29 03:45:07;;;;;;;14.82;3.45;;;11.90;99.50;;;;;;5013562;28;20127;-83
2022/05/29 03:47:33;;;;;;;10.13;3.20;;;12.10;99.60;;;;;;5013798;28;20033;-85
2022/05/29 03:49:59;;;;;;;16.63;3.63;;;11.90;99.50;;;;;;5012540;28;20045;-85
2022/05/29 03:52:24;;;;;;;9.18;2.65;;;11.80;99.90;;;;;;5013277;28;20034;-86
2022/05/29 03:54:52;;;;;;;14.48;2.85;;;11.90;99.80;;;;;;5013627;28;20127;-86
2022/05/29 03:57:18;;;;;;;11.30;2.42;;;11.90;99.70;;;;;;5014041;28;20025;-86
2022/05/29 03:59:46;;;;;;;14.57;2.75;;;11.80;99.90;;;;;;5012283;28;20030;-84
2022/05/29 04:02:12;;;;;;;19.50;3.40;;;11.80;99.60;;;;;;5012664;28;20030;-86
2022/05/29 04:04:37;;;;;;;15.45;3.42;;;11.90;99.70;;;;;;5013673;28;20038;-85
2022/05/29 04:07:03;;;;;;;11.77;2.63;;;11.90;99.60;;;;;;5013845;28;20332;-87
2022/05/29 04:12:13;;;;;;;12.75;3.10;;;11.90;99.60;;;;;;5014625;28;20033;-86
2022/05/29 04:14:42;;;;;;;11.82;2.60;;;12.00;99.30;;;;;;5013687;28;20029;-87
2022/05/29 04:17:10;;;;;;;17.88;3.15;;;12.00;99.50;;;;;;5013740;28;20034;-88
2022/05/29 04:19:35;;;;;;;11.82;2.83;;;12.10;99.30;;;;;;5013304;28;20108;-88
2022/05/29 04:22:09;;;;;;;11.43;3.42;;;12.10;99.10;;;;;;5013124;28;20172;-86
2022/05/29 04:24:35;;;;;;;11.13;2.80;;;12.00;99.10;;;;;;5013329;28;20025;-84
2022/05/29 04:27:01;;;;;;;9.80;2.53;;;11.70;99.50;;;;;;5013423;28;20413;-86
2022/05/29 04:29:27;;;;;;;12.63;2.78;;;11.90;99.40;;;;;;5012721;28;20048;-85
2022/05/29 04:34:37;;;;;;;16.33;3.05;;;11.70;99.40;;;;;;5013017;28;20164;-85
2022/05/29 04:37:04;;;;;;;10.80;3.30;;;11.80;99.20;;;;;;5012577;28;20183;-86
2022/05/29 04:39:32;;;;;;;8.88;2.50;;;11.80;99.30;;;;;;5012901;28;20022;-86
2022/05/29 04:42:00;;;;;;;13.35;2.72;;;11.80;99.30;;;;;;5012570;28;20333;-87
2022/05/29 04:44:26;;;;;;;10.38;2.42;;;11.70;99.30;;;;;;5012514;28;20076;-85
2022/05/29 04:46:51;;;;;;;14.32;3.58;;;11.70;99.40;;;;;;5012869;28;20138;-85
2022/05/29 04:49:17;;;;;;;17.27;3.10;;;11.90;99.30;;;;;;5012290;28;20041;-87
2022/05/29 04:51:42;;;;;;;11.65;2.80;;;11.80;99.20;;;;;;5012866;28;20025;-86
2022/05/29 04:54:08;;;;;;;12.05;2.83;;;11.80;99.20;;;;;;5011265;28;20045;-85
2022/05/29 04:56:35;;;;;;;13.38;2.92;;;11.80;99.20;;;;;;5011690;28;20463;-87
2022/05/29 04:59:00;;;;;;;14.10;2.65;;;11.80;99.40;;;;;;5011508;28;20025;-86
2022/05/29 05:01:26;;;;;;;16.90;3.20;;;11.80;99.20;;;;;;5012490;28;20060;-84
2022/05/29 05:03:51;;;;;;;18.70;3.13;;;11.80;99.20;;;;;;5012280;28;20109;-85
2022/05/29 05:06:17;;;;;;;15.38;2.95;;;11.80;99.20;;;;;;5011680;28;20467;-84
2022/05/29 05:08:43;;;;;;;13.65;2.97;;;11.70;99.30;;;;;;5012288;28;20497;-84
2022/05/29 05:11:08;;;;;;;15.40;3.50;;;11.70;99.50;;;;;;5012385;28;20452;-85
2022/05/29 05:13:34;;;;;;;16.10;4.05;;;11.70;99.50;;;;;;5013193;28;20444;-86
2022/05/29 05:16:07;;;;;;;7.78;3.05;;;11.80;99.50;;;;;;5015202;28;20097;-85
2022/05/29 05:18:32;;;;;;;12.52;3.47;;;11.90;99.30;;;;;;5016435;28;20072;-85
2022/05/29 05:20:58;;;;;;;16.02;3.42;;;11.80;99.20;;;;;;5014366;28;20037;-85
2022/05/29 05:23:27;;;;;;;22.15;3.65;;;11.80;99.40;;;;;;5013433;28;20352;-85
2022/05/29 05:25:52;;;;;;;13.93;3.25;;;11.90;99.20;;;;;;5015324;28;20112;-87
2022/05/29 05:28:18;;;;;;;11.95;3.75;;;11.90;99.30;;;;;;5014727;28;20132;-86
2022/05/29 05:30:47;;;;;;;14.38;3.47;;;12.00;99.20;;;;;;5013917;28;20056;-83
2022/05/29 05:33:14;;;;;;;14.98;3.15;;;12.00;99.10;;;;;;5011423;28;20379;-83
2022/05/29 05:35:39;;;;;;;13.55;2.83;;;12.10;99.00;;;;;;5011592;28;20471;-87
2022/05/29 05:38:06;;;;;;;14.73;3.15;;;12.30;99.00;;;;;;5010842;28;20334;-84
2022/05/29 05:40:31;;;;;;;11.23;3.33;;;12.30;98.90;;;;;;5010089;28;20056;-86
2022/05/29 05:42:57;;;;;;;12.93;3.15;;;12.30;98.70;;;;;;5011312;28;20018;-84
2022/05/29 05:45:23;;;;;;;14.35;3.00;;;12.10;98.80;;;;;;5012286;28;20448;-84
2022/05/29 05:47:49;;;;;;;14.15;3.00;;;12.00;99.20;;;;;;5011339;28;20026;-86
2022/05/29 05:50:15;;;;;;;23.42;3.80;;;12.00;99.50;;;;;;5011613;28;20049;-84
2022/05/29 05:52:41;;;;;;;13.32;3.13;;;11.90;99.20;;;;;;5012220;28;20026;-84
2022/05/29 05:55:12;;;;;;;13.68;3.17;;;12.10;99.30;;;;;;5012604;28;20030;-84
2022/05/29 05:57:39;;;;;;;11.88;3.38;;;12.30;99.00;;;;;;5012409;28;20034;-84
2022/05/29 06:00:08;;;;;;;17.88;2.78;;;12.30;98.60;;;;;;5010916;28;20122;-86
2022/05/29 06:02:34;;;;;;;13.45;2.92;;;12.20;98.80;;;;;;4993998;28;20065;-84
2022/05/29 06:04:59;;;;;;;21.38;2.88;;;12.20;98.80;;;;;;5011281;28;20454;-84
2022/05/29 06:07:25;;;;;;;15.98;3.03;;;12.40;98.70;;;;;;5010195;28;20117;-83
2022/05/29 06:09:51;;;;;;;9.77;2.80;;;12.50;98.40;;;;;;5011260;28;20479;-84
2022/05/29 06:12:19;;;;;;;9.60;3.13;;;12.50;98.40;;;;;;5011916;28;20061;-84
2022/05/29 06:14:46;;;;;;;9.52;2.47;;;12.60;98.40;;;;;;5011663;28;20548;-82
2022/05/29 06:17:12;;;;;;;12.45;2.60;;;12.50;98.20;;;;;;5010930;28;20088;-84
2022/05/29 06:19:37;;;;;;;12.25;2.92;;;12.40;98.20;;;;;;5012197;28;20435;-83
2022/05/29 06:22:03;;;;;;;10.05;2.80;;;12.40;98.30;;;;;;5015065;28;20519;-83
2022/05/29 06:24:29;;;;;;;10.77;3.20;;;12.50;98.20;;;;;;5016409;28;20482;-84
2022/05/29 06:26:59;;;;;;;13.00;3.05;;;12.50;98.20;;;;;;5015810;28;20463;-82
2022/05/29 06:29:25;;;;;;;11.75;3.17;;;12.50;98.10;;;;;;5015910;28;20034;-81
2022/05/29 06:31:50;;;;;;;12.48;3.03;;;12.40;98.10;;;;;;5017878;28;20034;-83
2022/05/29 06:34:16;;;;;;;13.25;3.28;;;12.40;98.30;;;;;;5014910;28;20034;-86
2022/05/29 06:36:41;;;;;;;8.80;2.65;;;12.50;98.20;;;;;;5015823;28;20029;-84
2022/05/29 06:39:07;;;;;;;13.90;2.95;;;12.40;98.40;;;;;;5016288;28;20038;-86
2022/05/29 06:41:34;;;;;;;10.32;2.67;;;12.60;98.30;;;;;;5015926;28;20128;-84
2022/05/29 06:44:00;;;;;;;10.60;2.80;;;12.50;98.30;;;;;;5014058;28;20037;-83
2022/05/29 06:46:25;;;;;;;7.93;2.95;;;12.60;98.10;;;;;;5015076;28;20033;-83
2022/05/29 06:48:51;;;;;;;13.40;2.90;;;12.60;98.20;;;;;;5013570;28;20042;-86
2022/05/29 06:51:21;;;;;;;11.65;2.92;;;12.50;98.30;;;;;;5015419;28;20053;-85
2022/05/29 06:53:49;;;;;;;10.55;2.92;;;12.60;98.30;;;;;;5014761;28;20030;-84
2022/05/29 06:56:16;;;;;;;12.93;4.28;;;12.70;98.30;;;;;;5014931;28;20487;-82
2022/05/29 06:58:41;;;;;;;15.45;3.70;;;12.70;98.10;;;;;;5014683;28;20120;-83
2022/05/29 07:09:24;;;;;;;17.48;3.10;;;12.50;98.10;;;;;;5014929;28;20045;-84
2022/05/29 07:11:54;;;;;;;12.02;2.83;;;12.50;98.00;;;;;;5014567;28;20030;-87
2022/05/29 07:14:20;;;;;;;14.38;2.95;;;12.60;98.00;;;;;;5014668;28;20530;-87
2022/05/29 07:16:45;;;;;;;12.35;2.80;;;12.60;97.90;;;;;;5014282;28;20034;-83
2022/05/29 07:19:13;;;;;;;10.45;2.47;;;12.50;97.90;;;;;;5014487;28;20164;-84
2022/05/29 07:21:40;;;;;;;14.52;2.67;;;12.70;97.70;;;;;;5014489;28;20022;-84
2022/05/29 07:24:06;;;;;;;8.87;2.63;;;12.70;97.50;;;;;;5014303;28;20109;-84
2022/05/29 07:26:32;;;;;;;12.73;2.70;;;12.80;97.50;;;;;;5014555;28;20263;-84
2022/05/29 07:28:58;;;;;;;15.32;2.80;;;12.80;97.30;;;;;;5014031;28;20038;-85
2022/05/29 07:31:23;;;;;;;13.85;3.25;;;12.90;97.30;;;;;;5014279;28;20050;-82
2022/05/29 07:33:49;;;;;;;9.98;2.92;;;13.20;97.10;;;;;;5014688;28;20037;-87
2022/05/29 07:36:17;;;;;;;10.65;2.35;;;13.10;96.80;;;;;;5013328;28;20018;-86
2022/05/29 07:38:43;;;;;;;8.02;2.00;;;13.20;96.90;;;;;;5014431;28;20030;-85
2022/05/29 07:43:54;;;;;;;8.13;2.13;;;13.30;96.70;;;;;;5014374;28;20080;-86
2022/05/29 07:46:20;;;;;;;9.98;2.72;;;13.50;96.70;;;;;;5015133;28;20030;-85
2022/05/29 07:48:46;;;;;;;11.00;2.15;;;13.40;96.50;;;;;;5015408;28;20074;-91
2022/05/29 07:51:12;;;;;;;10.85;2.35;;;13.50;96.60;;;;;;5013564;28;20364;-87
2022/05/29 07:53:38;;;;;;;7.13;2.85;;;13.70;96.60;;;;;;5013680;28;20046;-88
2022/05/29 07:56:07;;;;;;;10.20;2.38;;;13.80;96.60;;;;;;5013701;28;20033;-88
2022/05/29 07:58:34;;;;;;;6.80;2.10;;;14.00;96.20;;;;;;5014141;28;20479;-84
2022/05/29 08:01:01;;;;;;;8.18;2.08;;;13.90;96.40;;;;;;5012608;28;20034;-86
2022/05/29 08:03:31;;;;;;;8.57;1.98;;;13.80;95.90;;;;;;5014187;28;20040;-86
2022/05/29 08:05:57;;;;;;;10.48;2.55;;;13.80;95.80;;;;;;5012789;28;20038;-83
2022/05/29 08:08:26;;;;;;;8.90;2.50;;;13.80;96.20;;;;;;5014036;28;20034;-88
2022/05/29 08:10:52;;;;;;;13.35;2.15;;;13.70;96.60;;;;;;5013999;28;20034;-87
2022/05/29 08:13:17;;;;;;;6.82;1.95;;;13.60;96.90;;;;;;5014350;28;20034;-89
2022/05/29 08:15:43;;;;;;;6.88;2.28;;;13.60;97.00;;;;;;5016561;28;20559;-89
2022/05/29 08:18:12;;;;;;;11.05;2.10;;;13.40;97.50;;;;;;5014638;28;20056;-87
2022/05/29 08:20:38;;;;;;;9.73;2.25;;;13.20;98.40;;;;;;5013570;28;20036;-83
2022/05/29 08:23:05;;;;;;;12.68;1.95;;;13.10;98.80;;;;;;5011988;28;20026;-84
2022/05/29 08:30:59;;;;;;;9.85;2.40;;;13.50;98.80;;;;;;5015119;28;20102;-79
2022/05/29 08:33:27;;;;;;;11.82;2.88;;;13.50;99.00;;;;;;5014509;28;20056;-82
2022/05/29 08:36:15;;;;;;;10.52;3.42;;;13.70;99.40;;;;;;5017727;28;20073;-81
2022/05/29 08:38:43;;;;;;;8.68;2.53;;;13.80;98.90;;;;;;5014360;28;20518;-78
2022/05/29 08:41:36;;;;;;;11.57;2.90;;;13.90;98.40;;;;;;5015549;28;20575;-77
2022/05/29 08:44:17;;;;;;;11.60;2.92;;;13.70;98.40;;;;;;5013859;28;20111;-79
2022/05/29 08:46:48;;;;;;;6.20;2.20;;;13.60;98.80;;;;;;5012129;28;20067;-78
2022/05/29 08:49:18;;;;;;;11.27;2.45;;;13.50;98.90;;;;;;5012654;28;20463;-78
2022/05/29 08:51:53;;;;;;;7.57;2.47;;;13.40;98.70;;;;;;5012570;28;20447;-79
2022/05/29 08:54:48;;;;;;;10.43;2.88;;;13.30;98.30;;;;;;5012528;28;20181;-79
2022/05/29 08:57:29;;;;;;;16.35;3.25;;;13.40;98.70;;;;;;5013195;28;20063;-85
2022/05/29 09:00:00;;;;;;;8.32;2.30;;;13.50;99.00;;;;;;5011917;28;20471;-87
2022/05/29 09:02:56;;;;;;;10.88;2.70;;;13.70;99.00;;;;;;5031454;28;20128;-80
2022/05/29 09:05:41;;;;;;;10.57;3.28;;;13.70;98.90;;;;;;5031628;28;20332;-80
2022/05/29 09:08:17;;;;;;;12.52;3.25;;;13.60;99.00;;;;;;5032412;28;20040;-85
2022/05/29 09:10:47;;;;;;;11.65;2.22;;;13.80;98.80;;;;;;5032443;28;20455;-83
2022/05/29 09:13:24;;;;;;;14.02;3.03;;;13.70;98.30;;;;;;5031445;28;20083;-84
2022/05/29 09:16:00;;;;;;;14.57;3.08;;;13.80;99.50;;;;;;5032639;28;20021;-80
2022/05/29 09:18:37;;;;;;;8.20;2.45;;;14.40;98.20;;;;;;5031695;28;20064;-86
2022/05/29 09:21:17;;;;;;;9.18;2.60;;;14.70;97.80;;;;;;5037165;28;20330;-84
2022/05/29 09:24:18;;;;;;;8.23;2.25;;;14.80;97.50;;;;;;5034063;28;20124;-84
2022/05/29 09:26:44;;;;;;;9.30;2.15;;;14.70;96.50;;;;;;5033198;28;20041;-88
2022/05/29 09:29:11;;;;;;;7.18;1.95;;;14.40;97.10;;;;;;5033380;28;20363;-84
2022/05/29 09:31:38;;;;;;;11.70;3.20;;;14.30;97.10;;;;;;5031609;28;20030;-86
2022/05/29 09:34:03;;;;;;;6.03;2.15;;;14.00;97.50;;;;;;5031822;28;20021;-88
2022/05/29 09:36:38;;;;;;;7.22;2.38;;;14.10;97.50;;;;;;5033251;28;20091;-86
2022/05/29 09:39:24;;;;;;;11.50;2.72;;;14.10;97.60;;;;;;5032640;28;20037;-86
2022/05/29 09:42:12;;;;;;;7.55;1.67;;;14.20;97.90;;;;;;5033351;28;20045;-88
2022/05/29 09:44:45;;;;;;;4.97;1.88;;;14.20;97.70;;;;;;5032034;28;20037;-89
2022/05/29 09:50:08;;;;;;;8.27;1.85;;;14.40;97.00;;;;;;5034147;28;20098;-85
2022/05/29 09:52:38;;;;;;;5.20;1.58;;;14.40;97.10;;;;;;5033476;28;20031;-82
2022/05/29 09:55:34;;;;;;;5.70;2.30;;;13.90;97.20;;;;;;5037886;28;20436;-82
2022/05/29 09:58:09;;;;;;;3.22;1.20;;;13.90;97.90;;;;;;5036294;28;20108;-87
2022/05/29 10:00:51;;;;;;;3.65;1.15;;;13.70;98.30;;;;;;5037909;28;20083;-81
2022/05/29 10:03:44;;;;;;;1.85;0.75;;;13.90;98.60;;;;;;5053178;28;20099;-77
2022/05/29 10:06:33;;;;;;;3.42;1.00;;;13.60;98.40;;;;;;5033108;28;20042;-75
2022/05/29 10:09:16;;;;;;;6.05;1.65;;;13.80;99.40;;;;;;5031647;28;20025;-85
2022/05/29 10:11:45;;;;;;;2.58;1.08;;;14.20;99.20;;;;;;5031129;28;20029;-81
2022/05/29 10:14:22;;;;;;;3.63;1.40;;;14.40;99.20;;;;;;5031606;28;20026;-80
2022/05/29 10:16:49;;;;;;;2.67;0.85;;;14.50;99.00;;;;;;5030901;28;20022;-80
2022/05/29 10:19:32;;;;;;;5.72;1.30;;;14.30;98.40;;;;;;5030918;28;20036;-79
2022/05/29 10:22:00;;;;;;;2.78;0.80;;;14.30;98.80;;;;;;5030457;28;20448;-81
2022/05/29 10:24:36;;;;;;;6.90;1.55;;;14.40;98.90;;;;;;5029918;28;20025;-79
2022/05/29 10:27:22;;;;;;;2.63;1.25;;;14.60;99.30;;;;;;5030789;28;20481;-79
2022/05/29 10:29:59;;;;;;;5.53;1.20;;;14.70;99.20;;;;;;5030277;28;20057;-78
2022/05/29 10:32:29;;;;;;;6.75;1.60;;;14.40;98.70;;;;;;5030479;28;20037;-80
2022/05/29 10:35:16;;;;;;;3.35;1.10;;;14.60;99.00;;;;;;5030466;28;20459;-78
2022/05/29 10:37:43;;;;;;;4.53;1.45;;;14.80;98.40;;;;;;5030139;28;20117;-73
2022/05/29 10:40:28;;;;;;;5.60;1.20;;;14.50;97.20;;;;;;5029967;28;20033;-76
2022/05/29 10:42:59;;;;;;;7.85;1.77;;;14.40;97.70;;;;;;5030081;28;20060;-76
2022/05/29 10:45:30;;;;;;;7.35;1.65;;;14.40;98.10;;;;;;5030681;28;20026;-76
2022/05/29 10:48:14;;;;;;;4.82;1.38;;;14.60;98.10;;;;;;5030367;28;20143;-76
2022/05/29 10:50:59;;;;;;;7.13;1.88;;;14.90;98.10;;;;;;5029145;28;20033;-77
2022/05/29 10:54:04;;;;;;;4.25;1.58;;;14.70;97.50;;;;;;5030493;28;20033;-80
2022/05/29 10:56:50;;;;;;;6.28;1.42;;;14.90;97.50;;;;;;5034264;28;20034;-79
2022/05/29 10:59:47;;;;;;;12.60;2.17;;;14.90;96.10;;;;;;5030140;28;20048;-79
2022/05/29 11:05:45;;;;;;;2.17;0.93;;;14.90;96.40;;;;;;5030222;28;20286;-82
2022/05/29 11:08:24;;;;;;;6.40;1.80;;;14.90;95.90;;;;;;5030509;28;20033;-80
2022/05/29 11:10:56;;;;;;;6.10;0.93;;;14.80;95.60;;;;;;5033674;28;20022;-79
2022/05/29 11:13:42;;;;;;;6.88;1.55;;;14.50;95.90;;;;;;5032595;28;20190;-79
2022/05/29 11:16:50;;;;;;;4.88;1.75;;;14.50;96.70;;;;;;5032383;28;20034;-79
2022/05/29 11:19:47;;;;;;;9.00;1.98;;;14.60;97.00;;;;;;5033539;28;20026;-81
2022/05/29 11:22:37;;;;;;;6.32;2.05;;;14.60;97.50;;;;;;5033512;28;20477;-76
2022/05/29 11:25:31;;;;;;;6.05;2.25;;;14.70;97.60;;;;;;5033695;28;20442;-79
2022/05/29 11:28:18;;;;;;;6.72;2.65;;;14.70;97.60;;;;;;5033916;28;20275;-86
2022/05/29 11:31:14;;;;;;;5.05;1.92;;;15.00;98.10;;;;;;5033855;28;20034;-78
2022/05/29 11:33:55;;;;;;;8.60;1.85;;;14.80;96.80;;;;;;5034013;28;20098;-76
2022/05/29 11:36:48;;;;;;;8.98;2.67;;;15.10;97.10;;;;;;5033932;28;20025;-75
2022/05/29 11:39:31;;;;;;;6.45;1.50;;;15.40;96.40;;;;;;5033558;28;20029;-80
2022/05/29 11:42:06;;;;;;;10.82;2.25;;;15.30;96.40;;;;;;5033167;28;20053;-79
2022/05/29 11:44:43;;;;;;;9.60;1.67;;;15.10;97.30;;;;;;5033275;28;20140;-83
2022/05/29 11:53:49;;;;;;;4.30;0.95;;;14.90;97.70;;;;;;5032824;28;20068;-78
2022/05/29 11:56:51;;;;;;;7.70;1.52;;;14.70;98.00;;;;;;5032822;28;20640;-78
2022/05/29 11:59:39;;;;;;;7.15;1.50;;;14.70;98.30;;;;;;5032705;28;20033;-78
2022/05/29 12:02:29;;;;;;;5.63;1.50;;;14.80;98.80;;;;;;5031495;28;20037;-76
2022/05/29 12:05:17;;;;;;;8.13;1.85;;;14.70;98.40;;;;;;5031583;28;20037;-80
2022/05/29 12:08:09;;;;;;;7.47;2.10;;;14.60;98.70;;;;;;5032752;28;20090;-80
2022/05/29 12:10:49;;;;;;;4.18;1.85;;;14.50;98.60;;;;;;5028520;28;20037;-75
2022/05/29 12:13:17;;;;;;;10.13;2.28;;;14.40;99.20;;;;;;5032479;28;20084;-79
2022/05/29 12:15:45;;;;;;;;;;;14.50;99.20;;;;;;5033739;28;20030;-78
2022/05/29 12:18:16;;;;;;;7.10;2.00;;;14.40;98.70;;;;;;5032444;28;19932;-77
2022/05/29 12:20:49;;;;;;;9.10;1.67;;;14.20;99.30;;;;;;5031395;28;20030;-77
2022/05/29 12:23:26;;;;;;;4.00;1.50;;;14.00;98.80;;;;;;5032349;28;20080;-77
2022/05/29 12:26:00;;;;;;;8.53;1.67;;;13.90;98.90;;;;;;5032159;28;20045;-73
2022/05/29 12:28:37;;;;;;;3.70;1.52;;;14.20;98.90;;;;;;5032071;28;20278;-77
2022/05/29 12:31:38;;;;;;;4.25;1.42;;;14.30;98.90;;;;;;5030895;28;20033;-76
2022/05/29 12:34:06;;;;;;;5.47;1.60;;;14.70;99.10;;;;;;5032389;28;20112;-79
2022/05/29 12:36:49;;;;;;;3.35;1.17;;;14.90;98.30;;;;;;5033025;28;20438;-78
2022/05/29 12:39:24;;;;;;;3.65;1.75;;;15.20;98.00;;;;;;5032063;28;20033;-76
2022/05/29 12:41:59;;;;;;;3.25;1.30;;;15.20;96.90;;;;;;5031726;28;20045;-77
2022/05/29 12:44:27;;;;;;;3.20;1.10;;;15.00;96.90;;;;;;5031852;28;20387;-78
2022/05/29 12:47:05;;;;;;;;;;;15.20;96.20;;;;;;5032447;28;20099;-76
2022/05/29 12:50:08;;;;;;;4.75;0.90;;;15.20;96.20;;;;;;5030557;28;20270;-75
2022/05/29 12:52:42;;;;;;;2.40;0.95;;;15.20;96.30;;;;;;5032155;28;20033;-77
2022/05/29 12:55:14;;;;;;;3.78;0.98;;;15.10;96.30;;;;;;5032050;28;20330;-79
2022/05/29 12:58:02;;;;;;;5.03;1.45;;;15.10;96.40;;;;;;5031171;28;20029;-76
2022/05/29 13:01:14;;;;;;;2.90;0.80;;;15.20;96.20;;;;;;5032061;28;20111;-79
2022/05/29 13:04:12;;;;;;;5.07;1.45;;;14.90;95.90;;;;;;5031575;28;20451;-77
2022/05/29 13:07:01;;;;;;;3.55;1.10;;;15.00;96.50;;;;;;5032210;28;20045;-80
2022/05/29 13:09:35;;;;;;;3.92;1.55;;;15.30;96.90;;;;;;5031784;28;20037;-78
2022/05/29 13:12:06;;;;;;;2.15;0.90;;;15.50;95.80;;;;;;5031627;28;20026;-79
2022/05/29 13:14:33;;;;;;;8.50;2.83;;;15.50;95.80;;;;;;5031556;28;20072;-80
2022/05/29 13:17:05;;;;;;;23.02;5.78;;;15.40;95.00;;;;;;5031891;28;20029;-80
2022/05/29 13:20:04;;;;;;;2.90;1.40;;;15.40;95.20;;;;;;5031630;28;20069;-79
2022/05/29 13:23:01;;;;;;;3.58;1.08;;;15.50;95.00;;;;;;5030099;28;20017;-79
2022/05/29 13:25:32;;;;;;;3.85;1.00;;;15.20;94.60;;;;;;5031839;28;20033;-78
2022/05/29 13:27:59;;;;;;;2.58;1.02;;;15.10;94.90;;;;;;5031201;28;20032;-80
2022/05/29 13:31:12;;;;;;;3.53;1.42;;;15.00;93.80;;;;;;5031394;28;20440;-79
2022/05/29 13:33:45;;;;;;;3.53;1.15;;;14.90;93.70;;;;;;5020770;28;20029;-79
2022/05/29 13:36:48;;;;;;;4.22;1.00;;;15.00;93.70;;;;;;5032165;28;20093;-84
2022/05/29 13:39:29;;;;;;;2.40;1.10;;;15.10;94.40;;;;;;5031969;28;20033;-83
2022/05/29 13:41:59;;;;;;;4.68;0.90;;;14.90;93.80;;;;;;5031912;28;20133;-83
2022/05/29 13:44:35;;;;;;;3.85;1.38;;;15.10;94.10;;;;;;5031341;28;20025;-75
2022/05/29 13:47:23;;;;;;;5.05;1.90;;;15.20;94.00;;;;;;5030843;28;20041;-78
2022/05/29 13:50:11;;;;;;;3.03;1.50;;;14.90;93.10;;;;;;5030480;28;20119;-80
2022/05/29 13:52:54;;;;;;;7.25;1.50;;;15.00;93.90;;;;;;5029830;28;20033;-81
2022/05/29 13:55:34;;;;;;;3.75;0.93;;;15.00;93.50;;;;;;5030582;28;20147;-80
2022/05/29 14:04:34;;;;;;;3.20;0.88;;;14.80;93.20;;;;;;5029087;28;20038;-77